Time;durP1;ratioP1;P1;durP2;ratioP2;P2;SDS_P1;SDS_P2;PMS_P1;PMS_P2;Temp;Humidity;BMP_temperature;BMP_pressure;BME280_temperature;BME280_humidity;BME280_pressure;Samples;Min_cycle;Max_cycle;Signal;HPM_P1;HPM_P2
2022/01/05 00:00:38;;;;;;;;;1.50;0.00;;;;;5.90;66.90;100038.31;5076156;28;45570;-78
2022/01/05 00:03:04;;;;;;;;;0.00;0.00;;;;;5.85;67.17;100033.34;5075873;28;45849;-77
2022/01/05 00:05:30;;;;;;;;;0.00;0.00;;;;;5.84;67.28;100042.06;5075863;28;46023;-77
2022/01/05 00:07:56;;;;;;;;;1.50;0.00;;;;;5.89;66.87;100052.22;5057723;28;45748;-79
2022/01/05 00:13:43;;;;;;;;;0.00;0.00;;;;;5.87;67.15;100067.09;5075588;28;46135;-78
2022/01/05 00:16:09;;;;;;;;;1.00;0.25;;;;;5.86;66.96;100075.78;5075923;28;45567;-79
2022/01/05 00:18:35;;;;;;;;;0.50;0.00;;;;;5.85;66.81;100064.53;5075591;28;45546;-78
2022/01/05 00:21:03;;;;;;;;;0.00;0.00;;;;;5.74;66.97;100048.75;5075941;28;45784;-76
2022/01/05 00:23:28;;;;;;;;;0.00;0.00;;;;;5.78;66.66;100059.81;5075905;28;46451;-78
2022/01/05 00:25:54;;;;;;;;;0.75;0.00;;;;;5.78;66.36;100054.59;5074837;28;46078;-78
2022/01/05 00:28:20;;;;;;;;;0.00;0.00;;;;;5.78;66.64;100063.25;5075615;28;45581;-78
2022/01/05 00:30:48;;;;;;;;;0.00;0.00;;;;;5.75;66.20;100057.41;5076069;28;45584;-78
2022/01/05 00:33:15;;;;;;;;;1.00;0.00;;;;;5.76;66.71;100067.72;5057403;28;48674;-78
2022/01/05 00:35:41;;;;;;;;;1.00;0.00;;;;;5.76;66.16;100072.06;5075450;28;45922;-77
2022/01/05 00:38:06;;;;;;;;;1.00;0.00;;;;;5.74;66.34;100077.34;5075392;28;45751;-78
2022/01/05 00:43:54;;;;;;;;;1.50;1.00;;;;;5.71;65.97;100071.50;5082903;27;45836;-80
2022/01/05 00:46:19;;;;;;;;;0.00;0.00;;;;;5.68;66.12;100075.13;5074793;28;46121;-78
2022/01/05 00:48:44;;;;;;;;;1.50;1.50;;;;;5.69;66.44;100088.94;5074773;28;45608;-78
2022/01/05 00:51:10;;;;;;;;;0.00;0.00;;;;;5.66;66.34;100084.78;5074661;28;45815;-78
2022/01/05 00:53:36;;;;;;;;;0.00;0.00;;;;;5.61;65.87;100079.03;5074968;28;47370;-77
2022/01/05 00:56:02;;;;;;;;;0.00;0.00;;;;;5.64;65.77;100089.22;5074516;28;46194;-79
2022/01/05 00:58:27;;;;;;;;;0.75;0.75;;;;;5.61;66.13;100094.63;5074709;28;45821;-77
2022/01/05 01:00:53;;;;;;;;;0.00;0.00;;;;;5.57;65.87;100082.72;5056998;28;45657;-78
2022/01/05 01:03:18;;;;;;;;;1.00;1.00;;;;;5.61;65.87;100106.75;5075409;28;46308;-79
2022/01/05 01:05:44;;;;;;;;;1.50;1.00;;;;;5.50;66.17;100107.41;5056922;28;46387;-77
2022/01/05 01:08:10;;;;;;;;;1.00;1.00;;;;;5.57;66.25;100119.06;5057333;28;45659;-77
2022/01/05 01:13:56;;;;;;;;;0.25;0.00;;;;;5.42;66.27;100112.19;5075007;28;45672;-78
2022/01/05 01:16:22;;;;;;;;;0.00;0.00;;;;;5.47;66.42;100115.34;5074528;28;45992;-77
2022/01/05 01:18:47;;;;;;;;;1.25;1.00;;;;;5.48;66.20;100127.41;5074508;28;45549;-78
2022/01/05 01:21:13;;;;;;;;;0.75;0.50;;;;;5.47;66.08;100125.75;5074675;28;45740;-77
2022/01/05 01:23:40;;;;;;;;;1.00;0.25;;;;;5.44;66.30;100126.78;5074453;28;46352;-77
2022/01/05 01:29:27;;;;;;;;;1.00;0.00;;;;;5.39;66.31;100139.19;5074556;28;45713;-77
2022/01/05 01:31:53;;;;;;;;;0.75;0.25;;;;;5.38;66.11;100145.28;5074967;28;45598;-77
2022/01/05 01:34:19;;;;;;;;;2.75;0.25;;;;;5.37;66.41;100141.03;5074561;28;45934;-77
2022/01/05 01:36:44;;;;;;;;;2.00;1.00;;;;;5.35;66.20;100145.44;5075119;28;46433;-77
2022/01/05 01:39:10;;;;;;;;;0.00;0.00;;;;;5.34;66.05;100143.81;5059961;28;45590;-78
2022/01/05 01:41:35;;;;;;;;;1.00;0.00;;;;;5.32;66.21;100158.63;5078233;28;45853;-76
2022/01/05 01:44:01;;;;;;;;;0.75;0.00;;;;;5.28;65.86;100157.13;5078179;27;45651;-77
2022/01/05 01:46:26;;;;;;;;;1.50;1.00;;;;;5.24;66.08;100160.81;5078295;28;46426;-77
2022/01/05 01:48:51;;;;;;;;;0.75;0.75;;;;;5.28;66.26;100164.09;5078660;28;45531;-78
2022/01/05 01:51:18;;;;;;;;;1.00;0.00;;;;;5.29;65.59;100178.75;5078860;28;45763;-79
2022/01/05 01:53:43;;;;;;;;;1.00;0.00;;;;;5.26;65.59;100171.97;5079195;28;45507;-79
2022/01/05 01:59:30;;;;;;;;;1.00;1.00;;;;;5.25;65.92;100179.81;5077986;28;45770;-76
2022/01/05 02:01:56;;;;;;;;;4.00;1.00;;;;;5.18;65.43;100178.50;5078423;28;45700;-78
2022/01/05 02:04:21;;;;;;;;;2.00;0.00;;;;;5.06;65.57;100175.69;5077927;28;46720;-77
2022/01/05 02:06:47;;;;;;;;;0.00;0.00;;;;;5.25;65.29;100205.78;5077827;28;45966;-79
2022/01/05 02:09:13;;;;;;;;;0.00;0.00;;;;;5.23;65.13;100216.28;5077865;28;45867;-78
2022/01/05 02:11:39;;;;;;;;;1.00;0.00;;;;;5.21;65.40;100209.50;5076449;28;46035;-78
2022/01/05 02:14:05;;;;;;;;;0.25;0.00;;;;;5.19;65.40;100208.72;5077777;28;45805;-76
2022/01/05 02:16:33;;;;;;;;;0.25;0.00;;;;;5.18;65.50;100213.09;5077608;28;46284;-76
2022/01/05 02:19:00;;;;;;;;;2.50;0.00;;;;;5.21;65.27;100212.09;5077819;28;45926;-78
2022/01/05 02:21:51;;;;;;;;;1.00;1.00;;;;;5.23;65.48;100216.28;5077744;28;45799;-78
2022/01/05 02:24:17;;;;;;;;;2.00;1.00;;;;;5.15;65.72;100213.25;5073390;28;46624;-79
2022/01/05 02:26:42;;;;;;;;;1.50;1.00;;;;;5.16;65.19;100227.91;5077520;28;45684;-78
2022/01/05 02:29:08;;;;;;;;;0.25;0.00;;;;;5.06;65.39;100200.78;5077665;28;45741;-78
2022/01/05 02:31:33;;;;;;;;;1.00;0.25;;;;;5.16;65.29;100216.69;5077706;28;45515;-78
2022/01/05 02:33:59;;;;;;;;;2.00;1.00;;;;;5.17;65.86;100233.97;5059568;28;46355;-78
2022/01/05 02:36:24;;;;;;;;;0.00;0.00;;;;;5.06;65.25;100214.63;5077447;28;45658;-77
2022/01/05 02:38:52;;;;;;;;;2.00;0.00;;;;;5.13;65.72;100229.88;5077258;28;45570;-78
2022/01/05 02:44:44;;;;;;;;;0.00;0.00;;;;;5.10;65.57;100230.84;5081948;27;46086;-78
2022/01/05 02:47:09;;;;;;;;;0.75;0.50;;;;;5.08;65.79;100235.28;5076924;28;46180;-77
2022/01/05 02:49:35;;;;;;;;;0.50;0.00;;;;;4.82;65.53;100192.56;5076680;28;45917;-78
2022/01/05 02:52:00;;;;;;;;;0.00;0.00;;;;;5.05;65.58;100227.66;5077452;28;45447;-76
2022/01/05 02:54:25;;;;;;;;;1.00;0.00;;;;;5.03;65.81;100225.16;5076855;28;46409;-79
2022/01/05 02:56:53;;;;;;;;;2.00;0.50;;;;;4.88;65.87;100199.19;5077145;28;45722;-76
2022/01/05 02:59:18;;;;;;;;;3.00;1.00;;;;;5.00;65.86;100224.50;5077207;28;45865;-78
2022/01/05 03:01:44;;;;;;;;;1.25;1.00;;;;;4.97;65.77;100237.63;5077156;28;45725;-77
2022/01/05 03:04:09;;;;;;;;;0.00;0.00;;;;;4.91;65.36;100231.00;5077038;28;46231;-78
2022/01/05 03:06:35;;;;;;;;;0.50;0.00;;;;;4.97;65.63;100243.66;5076603;28;45637;-79
2022/01/05 03:09:00;;;;;;;;;1.00;0.00;;;;;4.95;65.66;100255.88;5058229;28;45680;-77
2022/01/05 03:14:47;;;;;;;;;1.00;0.00;;;;;4.91;65.61;100262.13;5076337;28;46026;-78
2022/01/05 03:17:12;;;;;;;;;2.00;1.00;;;;;4.90;65.54;100260.50;5076549;28;45753;-77
2022/01/05 03:19:38;;;;;;;;;0.00;0.00;;;;;4.89;65.75;100260.56;5077031;28;45638;-76
2022/01/05 03:22:03;;;;;;;;;1.00;1.00;;;;;4.86;65.96;100264.16;5076924;28;45570;-78
2022/01/05 03:30:53;;;;;;;;;0.00;0.00;;;;;4.71;66.02;100274.50;5076378;28;45863;-77
2022/01/05 03:33:21;;;;;;;;;1.75;0.00;;;;;4.76;65.67;100275.09;5076717;28;45471;-78
2022/01/05 03:35:48;;;;;;;;;1.00;0.00;;;;;4.75;65.66;100281.22;5076447;28;45628;-78
2022/01/05 03:38:16;;;;;;;;;0.00;0.00;;;;;4.73;65.71;100294.28;5076395;28;45893;-77
2022/01/05 03:40:43;;;;;;;;;1.25;0.00;;;;;4.68;65.86;100274.66;5076405;28;45666;-78
2022/01/05 03:43:09;;;;;;;;;0.50;0.00;;;;;4.74;65.86;100295.13;5076685;28;45757;-77
2022/01/05 03:45:37;;;;;;;;;1.00;0.75;;;;;4.61;65.78;100281.94;5076054;27;45448;-77
2022/01/05 03:48:07;;;;;;;;;2.00;1.00;;;;;4.68;66.04;100301.47;5075717;28;46893;-77
2022/01/05 03:50:32;;;;;;;;;0.25;0.25;;;;;4.55;65.84;100290.03;5076276;28;45483;-78
2022/01/05 03:52:58;;;;;;;;;1.00;1.00;;;;;4.59;66.26;100294.97;5076146;28;45532;-78
2022/01/05 03:55:23;;;;;;;;;1.00;1.00;;;;;4.63;66.09;100319.84;5075605;28;46263;-78
2022/01/05 03:57:48;;;;;;;;;1.00;0.00;;;;;4.55;65.94;100303.00;5076436;28;45988;-78
2022/01/05 04:00:15;;;;;;;;;1.50;1.00;;;;;4.39;66.20;100282.19;5075308;28;45889;-77
2022/01/05 04:02:41;;;;;;;;;0.75;0.00;;;;;4.67;66.10;100325.72;5076306;28;45522;-78
2022/01/05 04:05:07;;;;;;;;;0.00;0.00;;;;;4.59;66.03;100309.69;5075867;28;47687;-77
2022/01/05 04:07:32;;;;;;;;;1.50;0.50;;;;;4.67;66.38;100325.72;5077303;28;46398;-77
2022/01/05 04:09:58;;;;;;;;;0.00;0.00;;;;;4.65;65.87;100325.78;5077304;28;45640;-78
2022/01/05 04:12:23;;;;;;;;;0.75;0.25;;;;;4.60;65.94;100330.38;5076543;28;45656;-78
2022/01/05 04:14:48;;;;;;;;;1.00;0.00;;;;;4.64;65.99;100326.69;5076272;28;46552;-77
2022/01/05 04:17:14;;;;;;;;;2.00;1.50;;;;;4.60;66.32;100320.00;5075812;28;45650;-77
2022/01/05 04:19:39;;;;;;;;;1.00;0.00;;;;;4.62;65.99;100330.31;5076052;28;45857;-78
2022/01/05 04:22:05;;;;;;;;;0.50;0.00;;;;;4.64;66.06;100331.88;5076476;28;45641;-78
2022/01/05 04:24:30;;;;;;;;;1.00;0.00;;;;;4.45;66.13;100315.59;5075936;28;46117;-78
2022/01/05 04:30:17;;;;;;;;;1.25;0.25;;;;;4.62;65.66;100335.50;5075678;28;45656;-78
2022/01/05 04:32:42;;;;;;;;;0.75;0.00;;;;;4.68;66.04;100348.16;5075811;28;45701;-77
2022/01/05 04:35:11;;;;;;;;;1.00;1.00;;;;;4.69;66.35;100344.66;5075773;28;46724;-78
2022/01/05 04:37:36;;;;;;;;;0.25;0.25;;;;;4.63;66.07;100338.03;5076388;28;46223;-77
2022/01/05 04:40:03;;;;;;;;;1.00;0.00;;;;;4.65;66.05;100337.91;5075933;28;45551;-77
2022/01/05 04:42:28;;;;;;;;;2.00;0.75;;;;;4.71;66.22;100345.38;5075612;28;45590;-78
2022/01/05 04:44:54;;;;;;;;;1.00;1.00;;;;;4.72;66.07;100352.25;5075088;27;45553;-76
2022/01/05 04:47:20;;;;;;;;;2.00;1.00;;;;;4.72;66.14;100360.06;5075352;28;46297;-77
2022/01/05 04:49:46;;;;;;;;;1.00;1.00;;;;;4.72;66.52;100367.00;5075530;28;45779;-76
2022/01/05 04:52:11;;;;;;;;;1.50;1.00;;;;;4.70;66.63;100368.84;5075715;28;45668;-77
2022/01/05 04:54:37;;;;;;;;;0.00;0.00;;;;;4.68;66.41;100366.31;5075240;28;45612;-78
2022/01/05 05:00:24;;;;;;;;;0.25;0.25;;;;;4.61;66.10;100362.34;5074894;28;45786;-78
2022/01/05 05:02:49;;;;;;;;;1.00;0.25;;;;;4.58;66.08;100362.50;5075202;28;45512;-78
2022/01/05 05:05:15;;;;;;;;;0.00;0.00;;;;;4.56;66.62;100375.56;5074745;28;45609;-78
2022/01/05 05:07:40;;;;;;;;;1.25;1.00;;;;;4.55;66.54;100375.63;5075252;28;45988;-78
2022/01/05 05:10:06;;;;;;;;;1.00;1.00;;;;;4.45;66.23;100358.84;5075089;28;45496;-78
2022/01/05 05:12:31;;;;;;;;;1.00;0.00;;;;;4.38;66.16;100362.66;5075032;28;45718;-77
2022/01/05 05:14:57;;;;;;;;;0.50;0.00;;;;;4.41;66.25;100375.47;5074860;28;46304;-78
2022/01/05 05:17:22;;;;;;;;;1.00;0.25;;;;;4.38;66.25;100357.47;5074979;28;45590;-78
2022/01/05 05:19:48;;;;;;;;;1.00;0.75;;;;;4.41;66.35;100378.06;5075130;28;45681;-78
2022/01/05 05:22:13;;;;;;;;;2.00;1.00;;;;;4.49;66.21;100392.31;5075114;28;45649;-78
2022/01/05 05:24:38;;;;;;;;;0.00;0.00;;;;;4.50;66.73;100399.19;5074953;28;45629;-78
2022/01/05 05:30:25;;;;;;;;;1.00;0.00;;;;;4.48;66.76;100395.03;5074652;28;45659;-78
2022/01/05 05:32:54;;;;;;;;;3.50;1.00;;;;;4.38;66.52;100376.44;5074875;28;45760;-78
2022/01/05 05:35:20;;;;;;;;;0.00;0.00;;;;;4.55;66.39;100409.34;5074463;28;46308;-78
2022/01/05 05:37:45;;;;;;;;;0.00;0.00;;;;;4.50;66.41;100413.91;5074671;28;45633;-76
2022/01/05 05:40:11;;;;;;;;;1.00;1.00;;;;;4.53;66.99;100431.94;5074798;28;45593;-77
2022/01/05 05:45:58;;;;;;;;;0.50;0.50;;;;;4.47;66.82;100401.13;5081988;27;46056;-77
2022/01/05 05:48:23;;;;;;;;;0.00;0.00;;;;;4.58;66.82;100420.44;5074553;28;46101;-77
2022/01/05 05:50:49;;;;;;;;;0.00;0.00;;;;;4.56;66.47;100431.78;5074834;28;45735;-77
2022/01/05 05:53:15;;;;;;;;;0.25;0.00;;;;;4.52;66.92;100430.25;5074890;28;45584;-78
2022/01/05 05:55:40;;;;;;;;;1.00;0.75;;;;;4.60;66.54;100439.31;5074341;28;45603;-78
2022/01/05 05:58:06;;;;;;;;;0.75;0.00;;;;;4.52;66.79;100432.84;5056005;28;47080;-77
2022/01/05 06:00:32;;;;;;;;;1.75;0.00;;;;;4.59;66.90;100439.41;5074558;28;45721;-78
2022/01/05 06:02:59;;;;;;;;;0.75;0.00;;;;;4.57;66.87;100433.47;5074818;28;45669;-78
2022/01/05 06:05:24;;;;;;;;;1.00;0.00;;;;;4.58;66.86;100436.00;5074073;28;46477;-78
2022/01/05 06:07:50;;;;;;;;;1.00;0.00;;;;;4.58;66.80;100445.53;5074189;28;45964;-78
2022/01/05 06:10:15;;;;;;;;;0.25;0.25;;;;;4.57;66.76;100447.28;5072784;28;45601;-78
2022/01/05 06:16:02;;;;;;;;;0.00;0.00;;;;;4.57;67.06;100442.09;5074176;28;45554;-77
2022/01/05 06:18:28;;;;;;;;;1.00;0.25;;;;;4.38;67.20;100417.09;5074585;28;45723;-78
2022/01/05 06:20:53;;;;;;;;;0.00;0.00;;;;;4.53;67.18;100444.91;5074300;28;45506;-77
2022/01/05 06:23:19;;;;;;;;;1.00;1.00;;;;;4.51;67.06;100452.75;5074170;28;45621;-76
2022/01/05 06:25:44;;;;;;;;;1.00;0.00;;;;;4.55;67.06;100462.06;5077466;28;45389;-77
2022/01/05 06:28:11;;;;;;;;;1.25;1.25;;;;;4.58;66.82;100468.88;5077712;28;45498;-77
2022/01/05 06:30:40;;;;;;;;;1.00;1.00;;;;;4.59;67.04;100463.59;5077335;28;45688;-78
2022/01/05 06:33:06;;;;;;;;;2.50;1.00;;;;;4.58;67.42;100464.53;5077849;28;45550;-76
2022/01/05 06:35:32;;;;;;;;;0.00;0.00;;;;;4.55;66.94;100480.22;5077363;28;46303;-77
2022/01/05 06:37:57;;;;;;;;;0.25;0.25;;;;;4.54;67.44;100486.31;5077579;28;46330;-77
2022/01/05 06:40:23;;;;;;;;;1.75;1.00;;;;;4.46;67.27;100472.91;5077221;28;45533;-78
2022/01/05 06:46:10;;;;;;;;;0.00;0.00;;;;;4.46;67.62;100487.63;5078040;27;45595;-79
2022/01/05 06:48:35;;;;;;;;;1.00;1.00;;;;;4.44;67.57;100494.63;5076879;28;45745;-77
2022/01/05 06:51:00;;;;;;;;;0.00;0.00;;;;;4.42;67.63;100496.47;5077069;28;45583;-76
2022/01/05 06:53:27;;;;;;;;;0.75;0.75;;;;;4.35;67.42;100502.84;5077127;28;45456;-76
2022/01/05 06:55:53;;;;;;;;;1.00;0.00;;;;;4.37;67.57;100503.63;5076414;28;46317;-78
2022/01/05 06:58:18;;;;;;;;;0.75;0.00;;;;;4.19;67.66;100490.59;5076648;28;45773;-78
2022/01/05 07:00:44;;;;;;;;;2.00;1.00;;;;;4.25;67.71;100499.00;5076278;28;45707;-76
2022/01/05 07:03:10;;;;;;;;;0.00;0.00;;;;;4.29;67.44;100509.16;5077365;28;45878;-77
2022/01/05 07:05:35;;;;;;;;;1.00;1.00;;;;;4.32;67.73;100511.59;5076994;28;45492;-78
2022/01/05 07:08:01;;;;;;;;;2.00;1.00;;;;;4.29;67.57;100514.34;5076713;28;46038;-76
2022/01/05 07:10:26;;;;;;;;;2.00;1.00;;;;;4.31;67.75;100519.47;5077004;28;45969;-78
2022/01/05 07:16:13;;;;;;;;;2.00;0.00;;;;;4.27;67.88;100510.97;5076397;28;45930;-77
2022/01/05 07:18:39;;;;;;;;;0.50;0.00;;;;;4.23;67.84;100515.47;5077281;28;45721;-78
2022/01/05 07:21:04;;;;;;;;;2.00;0.00;;;;;4.22;68.12;100531.94;5077154;28;45597;-78
2022/01/05 07:23:30;;;;;;;;;0.00;0.00;;;;;4.24;68.12;100524.09;5077163;28;45416;-77
2022/01/05 07:25:55;;;;;;;;;2.00;1.00;;;;;4.22;68.38;100531.09;5076648;28;46056;-78
2022/01/05 07:28:20;;;;;;;;;1.00;1.00;;;;;4.20;68.17;100546.72;5058027;28;48541;-79
2022/01/05 07:30:46;;;;;;;;;1.00;1.00;;;;;4.12;68.82;100535.84;5076817;28;45842;-79
2022/01/05 07:33:12;;;;;;;;;0.00;0.00;;;;;4.09;68.54;100538.59;5076874;28;45633;-78
2022/01/05 07:35:38;;;;;;;;;1.75;0.25;;;;;4.17;68.32;100557.22;5076523;28;46538;-77
2022/01/05 07:38:03;;;;;;;;;1.00;1.00;;;;;4.12;68.54;100547.97;5076591;28;45709;-78
2022/01/05 07:40:29;;;;;;;;;0.25;0.25;;;;;4.12;68.18;100545.38;5076585;28;45561;-76
2022/01/05 07:46:17;;;;;;;;;1.00;1.00;;;;;3.99;68.94;100526.97;5076902;27;45581;-78
2022/01/05 07:48:42;;;;;;;;;3.50;0.00;;;;;4.15;68.74;100568.59;5076688;28;45676;-77
2022/01/05 07:51:07;;;;;;;;;0.75;0.00;;;;;4.14;69.09;100562.56;5074686;28;45938;-77
2022/01/05 07:53:33;;;;;;;;;0.00;0.00;;;;;4.14;68.83;100572.94;5077110;28;45847;-79
2022/01/05 07:55:58;;;;;;;;;0.00;0.00;;;;;3.98;68.81;100550.38;5076672;28;46838;-77
2022/01/05 08:01:45;;;;;;;;;1.00;1.00;;;;;4.00;69.37;100561.47;5075540;28;45548;-76
2022/01/05 08:04:19;;;;;;;;;2.00;0.75;;;;;4.00;69.50;100557.13;5076027;28;45689;-78
2022/01/05 08:06:44;;;;;;;;;1.00;0.00;;;;;3.74;69.46;100523.78;5076006;28;45945;-76
2022/01/05 08:09:12;;;;;;;;;2.50;1.00;;;;;4.04;69.00;100570.81;5076408;28;45516;-76
2022/01/05 08:11:38;;;;;;;;;3.50;1.00;;;;;4.07;69.11;100583.63;5075904;28;45845;-78
2022/01/05 08:14:03;;;;;;;;;0.00;0.00;;;;;4.21;69.32;100597.66;5076028;28;45699;-78
2022/01/05 08:16:29;;;;;;;;;0.25;0.25;;;;;4.23;69.44;100606.22;5075777;28;47614;-78
2022/01/05 08:18:55;;;;;;;;;0.25;0.00;;;;;4.21;69.37;100591.66;5075756;28;45695;-76
2022/01/05 08:21:21;;;;;;;;;0.75;0.00;;;;;4.27;69.56;100608.66;5075768;28;45525;-79
2022/01/05 08:23:48;;;;;;;;;0.25;0.25;;;;;4.25;69.31;100606.16;5075565;28;45528;-78
2022/01/05 08:26:14;;;;;;;;;0.75;0.00;;;;;4.20;69.55;100608.13;5075359;28;45548;-79
2022/01/05 08:28:40;;;;;;;;;1.00;0.00;;;;;4.21;69.71;100607.22;5075037;28;46311;-76
2022/01/05 08:31:05;;;;;;;;;0.25;0.25;;;;;4.25;69.18;100613.94;5075025;28;45714;-78
2022/01/05 08:33:30;;;;;;;;;0.00;0.00;;;;;4.27;69.50;100612.09;5075713;28;45897;-79
2022/01/05 08:35:56;;;;;;;;;1.25;0.25;;;;;4.29;69.34;100617.22;5075086;28;47589;-78
2022/01/05 08:38:22;;;;;;;;;2.50;1.00;;;;;4.25;69.40;100619.13;5075080;28;46161;-76
2022/01/05 08:40:49;;;;;;;;;2.00;1.00;;;;;4.31;69.82;100628.38;5075252;28;45740;-79
2022/01/05 08:46:36;;;;;;;;;0.00;0.00;;;;;4.30;69.59;100618.91;5075974;27;46177;-75
2022/01/05 08:49:01;;;;;;;;;0.75;0.00;;;;;4.33;69.81;100616.16;5074622;28;46130;-75
2022/01/05 08:51:26;;;;;;;;;0.50;0.50;;;;;4.39;69.50;100631.44;5074600;28;45702;-76
2022/01/05 08:53:52;;;;;;;;;2.00;1.00;;;;;4.40;69.61;100630.53;5074998;28;45573;-75
2022/01/05 08:56:18;;;;;;;;;0.50;0.00;;;;;4.39;69.49;100608.09;5074530;28;45719;-77
2022/01/05 09:02:05;;;;;;;;;1.00;1.00;;;;;4.47;69.40;100624.16;5074322;28;45860;-75
2022/01/05 09:04:30;;;;;;;;;0.00;0.00;;;;;4.52;69.13;100645.56;5056558;28;46006;-75
2022/01/05 09:06:56;;;;;;;;;3.50;0.75;;;;;4.53;69.70;100647.25;5074431;28;45607;-76
2022/01/05 09:09:21;;;;;;;;;1.00;0.25;;;;;4.51;69.46;100641.28;5074260;28;46990;-79
2022/01/05 09:11:47;;;;;;;;;5.00;2.50;;;;;4.57;69.84;100660.00;5075777;28;46062;-76
2022/01/05 09:14:12;;;;;;;;;2.00;1.00;;;;;4.58;69.60;100647.88;5074663;28;45631;-80
2022/01/05 09:16:38;;;;;;;;;1.25;1.00;;;;;4.58;69.80;100648.72;5075305;28;45565;-79
2022/01/05 09:19:04;;;;;;;;;0.00;0.00;;;;;4.59;69.63;100663.34;5074954;28;47050;-74
2022/01/05 09:21:29;;;;;;;;;1.25;1.00;;;;;4.58;69.71;100659.09;5075132;28;46006;-78
2022/01/05 09:23:55;;;;;;;;;1.75;0.75;;;;;4.60;69.91;100652.06;5075055;28;45659;-75
2022/01/05 09:26:20;;;;;;;;;1.00;1.00;;;;;4.62;69.26;100655.44;5074741;28;45578;-80
2022/01/05 09:32:09;;;;;;;;;1.00;1.00;;;;;4.59;69.75;100650.38;5074478;28;45777;-75
2022/01/05 09:34:36;;;;;;;;;1.50;1.50;;;;;4.68;69.50;100658.66;5074254;28;45666;-76
2022/01/05 09:37:08;;;;;;;;;1.00;1.00;;;;;4.73;69.52;100674.84;5073649;28;45639;-79
2022/01/05 09:42:18;;;;;;;;;1.25;1.00;;;;;4.77;69.58;100686.78;5073859;28;45579;-76
2022/01/05 09:44:46;;;;;;;;;0.50;0.50;;;;;4.76;69.84;100680.75;5073894;28;45562;-77
2022/01/05 09:47:11;;;;;;;;;0.50;0.00;;;;;4.82;69.65;100687.41;5073181;27;46551;-75
2022/01/05 09:49:39;;;;;;;;;1.00;1.00;;;;;4.86;69.99;100700.16;5075784;28;45607;-77
2022/01/05 09:52:09;;;;;;;;;4.00;2.00;;;;;4.87;69.83;100699.25;5080223;28;45785;-79
2022/01/05 09:54:36;;;;;;;;;1.25;1.00;;;;;4.91;69.38;100699.97;5083015;28;45627;-77
2022/01/05 09:57:03;;;;;;;;;3.00;1.00;;;;;4.91;69.99;100703.38;5084632;28;45719;-78
2022/01/05 09:59:33;;;;;;;;;0.50;0.00;;;;;4.77;69.52;100672.03;5088568;28;45486;-77
2022/01/05 10:01:58;;;;;;;;;1.00;1.00;;;;;4.99;69.72;100708.22;5090630;28;45668;-76
2022/01/05 10:04:24;;;;;;;;;4.00;2.00;;;;;5.02;69.77;100724.50;5080376;28;45718;-78
2022/01/05 10:06:50;;;;;;;;;2.00;1.00;;;;;5.06;69.54;100722.63;5077333;28;45899;-80
2022/01/05 10:09:15;;;;;;;;;2.00;1.00;;;;;5.07;69.60;100712.16;5077177;28;46248;-78
2022/01/05 10:11:41;;;;;;;;;4.00;1.75;;;;;5.14;69.83;100714.47;5077148;28;46124;-76
2022/01/05 10:17:30;;;;;;;;;1.00;1.00;;;;;5.25;69.68;100722.59;5076899;28;45968;-78
2022/01/05 10:20:05;;;;;;;;;0.75;0.00;;;;;5.32;69.35;100734.38;5079430;28;46106;-77
2022/01/05 10:22:42;;;;;;;;;0.00;0.00;;;;;5.39;69.05;100734.03;5079126;28;45620;-76
2022/01/05 10:25:20;;;;;;;;;0.75;0.00;;;;;5.40;68.79;100730.50;5080817;28;45533;-76
2022/01/05 10:27:58;;;;;;;;;3.50;1.50;;;;;5.48;68.81;100743.97;5066547;28;48274;-79
2022/01/05 10:30:43;;;;;;;;;2.00;0.25;;;;;5.44;68.83;100729.44;5082023;28;45605;-80
2022/01/05 10:33:10;;;;;;;;;0.75;0.25;;;;;5.51;68.75;100735.16;5078577;28;45703;-77
2022/01/05 10:35:37;;;;;;;;;3.50;1.00;;;;;5.62;68.97;100734.66;5077329;28;45585;-76
2022/01/05 10:38:08;;;;;;;;;2.00;0.00;;;;;5.65;68.35;100757.91;5075490;28;46705;-78
2022/01/05 10:40:35;;;;;;;;;1.00;1.00;;;;;5.66;68.48;100744.00;5076841;28;47412;-79
2022/01/05 10:43:10;;;;;;;;;1.25;0.75;;;;;5.72;68.27;100751.50;5077073;28;45683;-77
2022/01/05 10:45:42;;;;;;;;;1.00;0.50;;;;;5.75;68.32;100748.75;5077391;27;45665;-77
2022/01/05 10:48:12;;;;;;;;;0.75;0.75;;;;;5.77;68.41;100752.13;5077048;28;45662;-77
2022/01/05 10:50:38;;;;;;;;;2.00;1.75;;;;;5.83;68.40;100746.63;5077170;28;46000;-80
2022/01/05 10:53:05;;;;;;;;;1.00;0.25;;;;;5.79;68.56;100740.72;5077074;28;45757;-78
2022/01/05 10:55:32;;;;;;;;;1.25;1.25;;;;;5.98;68.40;100756.28;5077187;28;45608;-79
2022/01/05 10:57:58;;;;;;;;;1.00;0.00;;;;;6.04;68.47;100736.94;5076355;28;47262;-77
2022/01/05 11:00:41;;;;;;;;;1.00;1.00;;;;;6.09;68.04;100746.19;5076454;28;46144;-81
2022/01/05 11:03:38;;;;;;;;;1.00;1.00;;;;;6.10;67.53;100747.84;5076628;28;45624;-79
2022/01/05 11:06:14;;;;;;;;;1.00;1.00;;;;;6.11;67.85;100752.13;5076833;28;45875;-75
2022/01/05 11:08:45;;;;;;;;;2.00;1.00;;;;;6.14;67.82;100746.81;5076689;28;46335;-81
2022/01/05 11:11:37;;;;;;;;;1.75;1.75;;;;;6.18;67.80;100755.28;5076333;28;45679;-81
2022/01/05 11:14:09;;;;;;;;;1.00;0.50;;;;;6.21;67.86;100757.72;5076806;28;45636;-76
2022/01/05 11:16:37;;;;;;;;;4.25;1.00;;;;;6.24;67.79;100765.38;5076989;28;46010;-77
2022/01/05 11:19:24;;;;;;;;;1.00;0.25;;;;;6.26;67.49;100753.97;5076719;28;47502;-79
2022/01/05 11:22:16;;;;;;;;;2.00;1.00;;;;;6.31;67.25;100743.34;5076452;28;46432;-81
2022/01/05 11:24:48;;;;;;;;;1.50;1.00;;;;;6.36;67.25;100748.31;5076562;28;45846;-77
2022/01/05 11:27:19;;;;;;;;;2.00;1.00;;;;;6.39;67.32;100748.97;5075789;28;45596;-79
2022/01/05 11:29:47;;;;;;;;;2.00;1.00;;;;;6.42;67.28;100755.81;5076021;28;45624;-77
2022/01/05 11:32:15;;;;;;;;;1.00;1.00;;;;;6.46;66.76;100757.31;5076204;28;46042;-80
2022/01/05 11:34:42;;;;;;;;;1.75;1.00;;;;;6.54;66.89;100765.56;5076029;28;45827;-79
2022/01/05 11:37:08;;;;;;;;;0.25;0.00;;;;;6.54;66.72;100750.78;5076434;28;45502;-80
2022/01/05 11:39:34;;;;;;;;;1.50;0.75;;;;;6.53;66.33;100749.09;5076265;28;47516;-81
2022/01/05 11:42:09;;;;;;;;;3.50;0.00;;;;;6.54;66.33;100736.94;5057855;28;46969;-79
2022/01/05 11:44:54;;;;;;;;;2.00;1.00;;;;;6.62;66.54;100756.44;5075708;28;45559;-80
2022/01/05 11:47:27;;;;;;;;;2.00;0.75;;;;;6.62;66.43;100745.19;5071198;28;45778;-81
2022/01/05 11:50:13;;;;;;;;;1.00;0.75;;;;;6.72;66.33;100756.78;5076100;28;46721;-81
2022/01/05 11:53:00;;;;;;;;;2.00;1.00;;;;;6.76;65.88;100768.72;5076195;27;46072;-80
2022/01/05 11:55:27;;;;;;;;;0.50;0.00;;;;;6.79;65.84;100758.16;5075638;28;45812;-78
2022/01/05 12:01:17;;;;;;;;;2.50;1.00;;;;;6.87;65.40;100760.34;5077797;28;46251;-79
2022/01/05 12:03:52;;;;;;;;;0.75;0.50;;;;;6.88;64.97;100754.22;5075591;27;46567;-81
2022/01/05 12:06:19;;;;;;;;;2.25;1.00;;;;;6.85;65.18;100744.81;5076669;28;45639;-80
2022/01/05 12:08:59;;;;;;;;;1.75;1.00;;;;;6.84;65.51;100735.31;5057947;28;45707;-79
2022/01/05 12:11:35;;;;;;;;;2.00;1.00;;;;;6.96;65.11;100749.44;5075715;27;46681;-80
2022/01/05 12:17:22;;;;;;;;;1.75;1.00;;;;;6.97;64.97;100745.91;5075305;28;45627;-81
2022/01/05 12:19:47;;;;;;;;;2.75;0.25;;;;;7.07;64.53;100755.72;5075249;27;45525;-79
2022/01/05 12:22:26;;;;;;;;;1.75;0.00;;;;;7.09;64.81;100746.09;5072883;28;47493;-77
2022/01/05 12:25:09;;;;;;;;;0.25;0.00;;;;;7.14;64.34;100766.66;5074762;27;47317;-76
2022/01/05 12:27:54;;;;;;;;;5.25;1.25;;;;;7.17;64.10;100761.31;5074925;27;45465;-78
2022/01/05 12:33:42;;;;;;;;;1.00;0.25;;;;;7.24;63.90;100770.47;5076859;28;45548;-77
2022/01/05 12:36:08;;;;;;;;;0.75;0.50;;;;;7.30;63.21;100754.47;5074817;27;46284;-79
2022/01/05 12:38:54;;;;;;;;;1.00;0.25;;;;;7.30;63.37;100761.47;5074439;27;45605;-79
2022/01/05 12:41:30;;;;;;;;;2.00;2.00;;;;;7.33;63.30;100763.91;5075059;27;45625;-80
2022/01/05 12:43:59;;;;;;;;;1.00;1.00;;;;;7.34;63.26;100758.59;5075083;28;45459;-77
2022/01/05 12:46:37;;;;;;;;;1.00;1.00;;;;;7.36;62.78;100755.91;5074625;27;46694;-83
2022/01/05 12:49:05;;;;;;;;;2.00;1.00;;;;;7.34;63.02;100742.97;5074787;28;45644;-75
2022/01/05 12:51:41;;;;;;;;;1.00;1.00;;;;;7.39;63.24;100745.34;5075707;28;45826;-79
2022/01/05 12:54:09;;;;;;;;;2.25;0.00;;;;;7.42;63.06;100737.34;5075125;28;46632;-80
2022/01/05 12:56:46;;;;;;;;;1.75;1.00;;;;;7.52;62.90;100741.09;5075511;28;46234;-81
2022/01/05 12:59:16;;;;;;;;;2.00;0.00;;;;;7.40;62.79;100718.31;5074848;28;45734;-76
2022/01/05 13:01:44;;;;;;;;;1.00;1.00;;;;;7.52;62.42;100739.34;5075104;28;45534;-77